TimeEST,TemperatureF,Dew PointF,Humidity,Sea Level PressureIn,VisibilityMPH,Wind Direction,Wind SpeedMPH,Gust SpeedMPH,PrecipitationIn,Events,Conditions,WindDirDegrees,DateUTC
12:15 AM,12.2,3.0,67,30.23,10.0,Calm,Calm,-,N/A,,Clear,0,2013-01-23 05:15:00
12:35 AM,11.5,2.7,68,30.23,10.0,Calm,Calm,-,N/A,,Clear,0,2013-01-23 05:35:00
12:55 AM,9.5,3.4,76,30.23,10.0,Calm,Calm,-,N/A,,Clear,0,2013-01-23 05:55:00
1:15 AM,10.4,3.2,73,30.23,10.0,Calm,Calm,-,N/A,,Clear,0,2013-01-23 06:15:00
1:35 AM,12.2,2.3,65,30.23,10.0,Calm,Calm,-,N/A,,Clear,0,2013-01-23 06:35:00
1:55 AM,9.9,2.7,73,30.24,10.0,Calm,Calm,-,N/A,,Clear,0,2013-01-23 06:55:00
2:15 AM,10.0,2.7,72,30.24,10.0,Calm,Calm,-,N/A,,Clear,0,2013-01-23 07:15:00
2:35 AM,10.4,2.8,72,30.24,10.0,Calm,Calm,-,N/A,,Clear,0,2013-01-23 07:35:00
2:55 AM,9.9,2.3,71,30.25,10.0,Calm,Calm,-,N/A,,Clear,0,2013-01-23 07:55:00
3:15 AM,9.7,3.0,74,30.24,10.0,Calm,Calm,-,N/A,,Clear,0,2013-01-23 08:15:00
3:35 AM,9.5,3.2,76,30.24,10.0,Calm,Calm,-,N/A,,Clear,0,2013-01-23 08:35:00
3:55 AM,9.1,3.6,78,30.24,10.0,Calm,Calm,-,N/A,,Clear,0,2013-01-23 08:55:00
4:15 AM,7.7,2.8,81,30.24,10.0,Calm,Calm,-,N/A,,Clear,0,2013-01-23 09:15:00
4:35 AM,7.7,2.5,79,30.24,10.0,Calm,Calm,-,N/A,,Clear,0,2013-01-23 09:35:00
4:55 AM,8.8,3.9,81,30.24,10.0,Calm,Calm,-,N/A,,Clear,0,2013-01-23 09:55:00
5:15 AM,8.1,3.0,80,30.25,10.0,Calm,Calm,-,N/A,,Clear,0,2013-01-23 10:15:00
5:35 AM,8.6,3.4,79,30.25,10.0,Calm,Calm,-,N/A,,Clear,0,2013-01-23 10:35:00
5:55 AM,7.5,2.5,80,30.25,10.0,Calm,Calm,-,N/A,,Clear,0,2013-01-23 10:55:00
6:15 AM,7.2,2.7,82,30.25,10.0,Calm,Calm,-,N/A,,Clear,0,2013-01-23 11:15:00
6:35 AM,6.6,1.9,81,30.26,10.0,Calm,Calm,-,N/A,,Clear,0,2013-01-23 11:35:00
6:55 AM,7.7,2.8,81,30.26,10.0,Calm,Calm,-,N/A,,Clear,0,2013-01-23 11:55:00
7:15 AM,7.3,2.3,80,30.27,10.0,Calm,Calm,-,N/A,,Clear,0,2013-01-23 12:15:00
7:35 AM,7.7,2.7,80,30.27,10.0,Calm,Calm,-,N/A,,Clear,0,2013-01-23 12:35:00
7:55 AM,8.4,3.0,79,30.28,10.0,Calm,Calm,-,N/A,,Clear,0,2013-01-23 12:55:00
8:15 AM,10.0,4.6,79,30.27,10.0,Calm,Calm,-,N/A,,Clear,0,2013-01-23 13:15:00
8:35 AM,12.6,5.4,73,30.27,10.0,Calm,Calm,-,N/A,,Clear,0,2013-01-23 13:35:00
8:55 AM,14.5,4.8,65,30.28,10.0,Calm,Calm,-,N/A,,Clear,0,2013-01-23 13:55:00
9:15 AM,16.2,2.7,55,30.28,10.0,Calm,Calm,-,N/A,,Clear,0,2013-01-23 14:15:00
9:35 AM,17.8,3.9,55,30.28,10.0,Calm,Calm,-,N/A,,Clear,0,2013-01-23 14:35:00
9:55 AM,18.9,3.2,51,30.28,10.0,Calm,Calm,-,N/A,,Clear,0,2013-01-23 14:55:00
10:15 AM,20.3,-0.0,41,30.28,10.0,West,4.6,-,N/A,,Clear,260,2013-01-23 15:15:00
10:35 AM,21.0,-2.2,36,30.28,10.0,Calm,Calm,-,N/A,,Clear,0,2013-01-23 15:35:00
10:55 AM,22.1,-2.2,35,30.27,10.0,West,4.6,-,N/A,,Clear,260,2013-01-23 15:55:00
11:15 AM,23.0,-2.7,32,30.26,10.0,SW,8.1,-,N/A,,Clear,230,2013-01-23 16:15:00
11:35 AM,23.9,-3.3,31,30.24,10.0,WSW,9.2,-,N/A,,Clear,250,2013-01-23 16:35:00
11:55 AM,23.5,-2.9,32,30.24,10.0,Calm,Calm,-,N/A,,Mostly Cloudy,0,2013-01-23 16:55:00
12:15 PM,25.5,-2.4,30,30.22,10.0,SSW,6.9,-,N/A,,Overcast,210,2013-01-23 17:15:00
12:35 PM,26.1,-3.5,28,30.20,10.0,Calm,Calm,-,N/A,,Overcast,0,2013-01-23 17:35:00
12:55 PM,27.0,-2.9,27,30.18,10.0,SW,4.6,-,N/A,,Overcast,230,2013-01-23 17:55:00
1:15 PM,26.6,-3.3,27,30.17,10.0,SW,9.2,-,N/A,,Overcast,230,2013-01-23 18:15:00
1:35 PM,27.1,-3.5,27,30.16,10.0,South,9.2,-,N/A,,Overcast,190,2013-01-23 18:35:00
1:55 PM,28.2,-4.9,24,30.16,10.0,WSW,8.1,-,N/A,,Overcast,240,2013-01-23 18:55:00
2:15 PM,31.1,-5.4,21,30.14,10.0,West,10.4,-,N/A,,Overcast,260,2013-01-23 19:15:00
2:35 PM,31.5,-7.2,19,30.13,10.0,West,10.4,16.1,N/A,,Mostly Cloudy,260,2013-01-23 19:35:00
2:55 PM,29.8,-7.6,20,30.13,10.0,SW,4.6,-,N/A,,Overcast,230,2013-01-23 19:55:00
3:15 PM,30.7,-7.6,19,30.13,10.0,West,5.8,-,N/A,,Overcast,280,2013-01-23 20:15:00
3:35 PM,30.9,-6.9,19,30.13,10.0,West,4.6,-,N/A,,Overcast,280,2013-01-23 20:35:00
3:55 PM,32.0,-6.0,19,30.12,10.0,SW,9.2,-,N/A,,Overcast,230,2013-01-23 20:55:00
4:15 PM,31.5,-7.2,19,30.11,10.0,Calm,Calm,-,N/A,,Overcast,0,2013-01-23 21:15:00
4:35 PM,31.5,-6.5,19,30.11,10.0,Calm,Calm,-,N/A,,Overcast,0,2013-01-23 21:35:00
4:55 PM,30.9,-5.3,21,30.12,10.0,Calm,Calm,-,N/A,,Overcast,0,2013-01-23 21:55:00
5:15 PM,30.6,-3.6,23,30.12,10.0,Calm,Calm,-,N/A,,Overcast,0,2013-01-23 22:15:00
5:35 PM,30.7,-3.3,23,30.11,10.0,Calm,Calm,-,N/A,,Overcast,0,2013-01-23 22:35:00
5:55 PM,30.7,-1.3,25,30.11,10.0,West,5.8,-,N/A,,Overcast,260,2013-01-23 22:55:00
6:15 PM,30.2,1.4,29,30.11,10.0,West,3.5,-,N/A,,Overcast,270,2013-01-23 23:15:00
6:35 PM,30.2,2.1,30,30.11,10.0,Calm,Calm,-,N/A,,Overcast,0,2013-01-23 23:35:00
6:55 PM,30.2,3.2,32,30.10,10.0,West,4.6,-,N/A,,Overcast,260,2013-01-23 23:55:00
7:15 PM,30.0,4.5,34,30.09,10.0,West,4.6,-,N/A,,Overcast,260,2013-01-24 00:15:00
7:35 PM,29.7,5.2,35,30.10,10.0,Calm,Calm,-,N/A,,Overcast,0,2013-01-24 00:35:00
7:55 PM,29.3,6.3,38,30.09,10.0,Calm,Calm,-,N/A,,Overcast,0,2013-01-24 00:55:00
8:15 PM,29.3,7.7,40,30.09,10.0,Calm,Calm,-,N/A,,Overcast,0,2013-01-24 01:15:00
8:35 PM,29.3,8.6,42,30.09,10.0,Calm,Calm,-,N/A,,Overcast,0,2013-01-24 01:35:00
8:55 PM,29.8,11.7,47,30.09,10.0,WSW,6.9,-,N/A,,Overcast,250,2013-01-24 01:55:00
9:15 PM,29.7,14.2,53,30.08,10.0,SW,6.9,-,N/A,,Overcast,230,2013-01-24 02:15:00
9:35 PM,29.3,14.9,55,30.07,10.0,SW,3.5,-,N/A,,Overcast,230,2013-01-24 02:35:00
9:55 PM,29.1,16.0,58,30.07,10.0,WSW,4.6,-,N/A,,Overcast,240,2013-01-24 02:55:00
10:15 PM,28.9,17.6,63,30.07,10.0,SW,5.8,-,N/A,,Overcast,230,2013-01-24 03:15:00
10:35 PM,28.4,18.9,67,30.07,5.0,SW,4.6,-,N/A,Snow,Light Snow,230,2013-01-24 03:35:00
10:55 PM,27.9,20.3,73,30.07,5.0,SW,3.5,-,N/A,Snow,Light Snow,230,2013-01-24 03:55:00
11:15 PM,27.5,21.4,78,30.06,4.0,Calm,Calm,-,N/A,Snow,Light Snow,0,2013-01-24 04:15:00
11:35 PM,27.1,21.9,81,30.05,3.0,Calm,Calm,-,N/A,Snow,Light Snow,0,2013-01-24 04:35:00
11:55 PM,26.8,22.3,83,30.04,4.0,Calm,Calm,-,N/A,Snow,Light Snow,0,2013-01-24 04:55:00